Flight Track Log - Related Links

Times and Time Zones

All times are in EDT time to prevent confusion due to time zone crossing. See the ASQ6151 flight status page for this flight to view local times or setup timezone preferences in your user account.

Time Position Orientation Groundspeed Altitude Reporting Facility
EDT Latitude Longitude Course Direction KTS MPH feet Rate Location/Type
Fri 11:20:34 PM 42.0167 -87.9000 270° West 176 203 2,700  Level Chicago TRACON
Fri 11:21:40 PM 42.0667 -87.9667 315° West 249 287 4,600 2,045 Climbing Chicago TRACON
Fri 11:22:46 PM 42.1000 -88.0667 294° West 291 335 7,200 2,300 Climbing Chicago TRACON
Fri 11:23:00 PM 41.9667 -88.3760 270° West  Level FlightAware Approximate
Fri 11:24:00 PM 41.9667 -88.4950 270° West  Level FlightAware Approximate
Fri 11:24:40 PM 42.0500 -88.2667 251° West 306 352 11,500  Level Chicago TRACON
Fri 11:25:00 PM 41.9667 -88.6140 270° West  Level FlightAware Approximate
Fri 11:26:41 PM 41.9500 -88.4833 238° Southwest 357 411 14,200  Level Chicago TRACON
Fri 11:27:41 PM 41.9000 -88.6000 240° Southwest 364 419 15,400 905 Climbing Chicago TRACON
Fri 11:28:47 PM 41.8333 -88.7167 233° Southwest 375 432 16,100 350 Climbing Chicago TRACON
Fri 11:29:41 PM 41.7667 -88.8167 228° Southwest 398 458 16,100 -33 Level Chicago TRACON
Fri 11:31:00 PM 41.6670 -88.8974 211° Southwest  Level Estimated
Fri 11:31:47 PM 41.6333 -89.0333 211° Southwest 366 421 16,000  Level Chicago TRACON
Fri 11:32:41 PM 41.5667 -89.1333 228° Southwest 384 442 16,000  Level Chicago TRACON
Fri 11:34:00 PM 41.4613 -89.1996 213° Southwest  Level Estimated
Fri 11:41:00 PM 40.9526 -89.6247 185° South  Level FlightAware Approximate
Fri 11:42:00 PM 40.8650 -89.6394 194° South  Level FlightAware Approximate
Fri 11:43:00 PM 40.7778 -89.6544 189° South  Level FlightAware Approximate
Fri 11:44:00 PM 40.6905 -89.6732 191° South  Level FlightAware Approximate
Fri 11:45:00 PM 40.6642 -89.6933 191° South  Level Estimated
Fri 11:46:00 PM 40.6642 -89.6933 191° South  Level Estimated
Fri 11:47:00 PM 40.6642 -89.6933 191° South  Level Estimated
Fri 11:48:00 PM 40.6642 -89.6933 191° South  Level Estimated
Fri 11:49:00 PM 40.6642 -89.6933 191° South  Level Estimated
Fri 11:50:00 PM 40.6642 -89.6933 191° South  Level Estimated
Fri 11:51:00 PM 40.6642 -89.6933 191° South  Level Estimated
Fri 11:52:00 PM 40.6642 -89.6933 191° South  Level Estimated
Fri 11:53:00 PM 40.6642 -89.6933 191° South  Level Estimated
Fri 11:54:00 PM 40.6642 -89.6933 191° South  Level Estimated

Login

Don't have an account? Register now (free) for customized features, flight alerts, and more!